sensor_id;sensor_type;location;lat;lon;timestamp;P1;durP1;ratioP1;P2;durP2;ratioP2
23768;SDS011;12064;50.890;5.424;2022-08-19T00:04:11;9.97;;;9.07;;
23768;SDS011;12064;50.890;5.424;2022-08-19T00:13:03;9.93;;;9.13;;
23768;SDS011;12064;50.890;5.424;2022-08-19T00:21:55;9.02;;;8.32;;
23768;SDS011;12064;50.890;5.424;2022-08-19T00:30:48;9.57;;;8.75;;
23768;SDS011;12064;50.890;5.424;2022-08-19T00:39:41;9.93;;;9.02;;
23768;SDS011;12064;50.890;5.424;2022-08-19T00:48:32;9.30;;;8.50;;
23768;SDS011;12064;50.890;5.424;2022-08-19T00:57:26;9.63;;;8.82;;
23768;SDS011;12064;50.890;5.424;2022-08-19T01:06:22;9.60;;;8.80;;
23768;SDS011;12064;50.890;5.424;2022-08-19T01:15:14;9.97;;;9.13;;
23768;SDS011;12064;50.890;5.424;2022-08-19T01:24:11;9.10;;;8.40;;
23768;SDS011;12064;50.890;5.424;2022-08-19T01:33:05;9.13;;;8.32;;
23768;SDS011;12064;50.890;5.424;2022-08-19T01:41:55;9.65;;;8.85;;
23768;SDS011;12064;50.890;5.424;2022-08-19T01:50:46;9.07;;;8.30;;
23768;SDS011;12064;50.890;5.424;2022-08-19T01:59:39;9.95;;;9.15;;
23768;SDS011;12064;50.890;5.424;2022-08-19T02:08:31;8.90;;;8.10;;
23768;SDS011;12064;50.890;5.424;2022-08-19T02:17:24;9.13;;;8.32;;
23768;SDS011;12064;50.890;5.424;2022-08-19T02:26:15;8.57;;;7.88;;
23768;SDS011;12064;50.890;5.424;2022-08-19T02:35:06;8.60;;;7.90;;
23768;SDS011;12064;50.890;5.424;2022-08-19T02:43:59;9.02;;;8.23;;
23768;SDS011;12064;50.890;5.424;2022-08-19T02:52:51;8.73;;;7.93;;
23768;SDS011;12064;50.890;5.424;2022-08-19T03:01:45;8.85;;;8.13;;
23768;SDS011;12064;50.890;5.424;2022-08-19T03:10:40;8.45;;;7.75;;
23768;SDS011;12064;50.890;5.424;2022-08-19T03:19:36;8.60;;;7.90;;
23768;SDS011;12064;50.890;5.424;2022-08-19T03:28:28;8.43;;;7.72;;
23768;SDS011;12064;50.890;5.424;2022-08-19T03:37:21;7.95;;;7.35;;
23768;SDS011;12064;50.890;5.424;2022-08-19T03:46:13;8.23;;;7.53;;
23768;SDS011;12064;50.890;5.424;2022-08-19T03:55:10;8.35;;;7.65;;
23768;SDS011;12064;50.890;5.424;2022-08-19T04:04:03;8.60;;;7.93;;
23768;SDS011;12064;50.890;5.424;2022-08-19T04:12:54;8.02;;;7.38;;
23768;SDS011;12064;50.890;5.424;2022-08-19T04:21:46;7.90;;;7.30;;
23768;SDS011;12064;50.890;5.424;2022-08-19T04:30:40;7.93;;;7.28;;
23768;SDS011;12064;50.890;5.424;2022-08-19T04:39:35;8.37;;;7.70;;
23768;SDS011;12064;50.890;5.424;2022-08-19T04:48:44;7.40;;;6.80;;
23768;SDS011;12064;50.890;5.424;2022-08-19T04:57:35;8.00;;;7.35;;
23768;SDS011;12064;50.890;5.424;2022-08-19T05:06:30;7.70;;;7.10;;
23768;SDS011;12064;50.890;5.424;2022-08-19T05:15:23;7.97;;;7.30;;
23768;SDS011;12064;50.890;5.424;2022-08-19T05:24:14;8.00;;;7.40;;
23768;SDS011;12064;50.890;5.424;2022-08-19T05:33:06;7.78;;;7.18;;
23768;SDS011;12064;50.890;5.424;2022-08-19T05:42:03;7.97;;;7.38;;
23768;SDS011;12064;50.890;5.424;2022-08-19T05:50:56;7.55;;;6.95;;
23768;SDS011;12064;50.890;5.424;2022-08-19T05:59:48;7.53;;;6.93;;
23768;SDS011;12064;50.890;5.424;2022-08-19T06:08:43;7.18;;;6.68;;
23768;SDS011;12064;50.890;5.424;2022-08-19T06:17:41;7.43;;;6.85;;
23768;SDS011;12064;50.890;5.424;2022-08-19T06:26:35;7.10;;;6.50;;
23768;SDS011;12064;50.890;5.424;2022-08-19T06:35:27;7.43;;;6.82;;
23768;SDS011;12064;50.890;5.424;2022-08-19T06:44:19;7.43;;;6.82;;
23768;SDS011;12064;50.890;5.424;2022-08-19T06:53:11;7.72;;;7.13;;
23768;SDS011;12064;50.890;5.424;2022-08-19T07:02:03;6.95;;;6.45;;
23768;SDS011;12064;50.890;5.424;2022-08-19T07:10:56;7.10;;;6.57;;
23768;SDS011;12064;50.890;5.424;2022-08-19T07:19:48;7.38;;;6.82;;
23768;SDS011;12064;50.890;5.424;2022-08-19T07:28:40;7.18;;;6.68;;
23768;SDS011;12064;50.890;5.424;2022-08-19T07:37:33;7.47;;;6.88;;
23768;SDS011;12064;50.890;5.424;2022-08-19T07:46:27;7.15;;;6.65;;
23768;SDS011;12064;50.890;5.424;2022-08-19T07:55:24;6.82;;;6.25;;
23768;SDS011;12064;50.890;5.424;2022-08-19T08:04:18;7.97;;;7.28;;
23768;SDS011;12064;50.890;5.424;2022-08-19T08:13:28;7.50;;;6.90;;
23768;SDS011;12064;50.890;5.424;2022-08-19T08:22:19;7.15;;;6.65;;
23768;SDS011;12064;50.890;5.424;2022-08-19T08:31:30;7.22;;;6.65;;
23768;SDS011;12064;50.890;5.424;2022-08-19T08:49:31;6.93;;;6.43;;
23768;SDS011;12064;50.890;5.424;2022-08-19T08:58:32;6.65;;;6.15;;
23768;SDS011;12064;50.890;5.424;2022-08-19T09:08:06;6.70;;;6.20;;
23768;SDS011;12064;50.890;5.424;2022-08-19T09:16:53;6.50;;;6.00;;
23768;SDS011;12064;50.890;5.424;2022-08-19T09:25:48;6.47;;;5.97;;
23768;SDS011;12064;50.890;5.424;2022-08-19T09:34:42;6.28;;;5.78;;
23768;SDS011;12064;50.890;5.424;2022-08-19T09:43:34;6.30;;;5.80;;
23768;SDS011;12064;50.890;5.424;2022-08-19T09:52:26;6.15;;;5.65;;
23768;SDS011;12064;50.890;5.424;2022-08-19T10:01:18;6.17;;;5.70;;
23768;SDS011;12064;50.890;5.424;2022-08-19T10:10:11;6.03;;;5.63;;
23768;SDS011;12064;50.890;5.424;2022-08-19T10:19:02;5.82;;;5.43;;
23768;SDS011;12064;50.890;5.424;2022-08-19T10:27:55;5.68;;;5.28;;
23768;SDS011;12064;50.890;5.424;2022-08-19T10:36:46;6.40;;;5.90;;
23768;SDS011;12064;50.890;5.424;2022-08-19T10:45:37;6.22;;;5.82;;
23768;SDS011;12064;50.890;5.424;2022-08-19T10:54:28;6.00;;;5.50;;
23768;SDS011;12064;50.890;5.424;2022-08-19T11:03:37;6.00;;;5.60;;
23768;SDS011;12064;50.890;5.424;2022-08-19T11:12:30;5.57;;;5.18;;
23768;SDS011;12064;50.890;5.424;2022-08-19T11:21:25;5.30;;;4.90;;
23768;SDS011;12064;50.890;5.424;2022-08-19T11:30:21;5.80;;;5.40;;
23768;SDS011;12064;50.890;5.424;2022-08-19T11:39:16;5.70;;;5.30;;
23768;SDS011;12064;50.890;5.424;2022-08-19T11:48:08;5.45;;;5.05;;
23768;SDS011;12064;50.890;5.424;2022-08-19T11:56:59;5.53;;;5.13;;
23768;SDS011;12064;50.890;5.424;2022-08-19T12:05:52;6.50;;;6.00;;
23768;SDS011;12064;50.890;5.424;2022-08-19T12:14:43;5.13;;;4.80;;
23768;SDS011;12064;50.890;5.424;2022-08-19T12:23:37;5.68;;;5.28;;
23768;SDS011;12064;50.890;5.424;2022-08-19T12:32:28;5.57;;;5.18;;
23768;SDS011;12064;50.890;5.424;2022-08-19T12:41:21;4.97;;;4.68;;
23768;SDS011;12064;50.890;5.424;2022-08-19T12:50:12;5.57;;;5.17;;
23768;SDS011;12064;50.890;5.424;2022-08-19T12:59:05;4.82;;;4.53;;
23768;SDS011;12064;50.890;5.424;2022-08-19T13:08:01;5.18;;;4.78;;
23768;SDS011;12064;50.890;5.424;2022-08-19T13:16:51;5.38;;;4.97;;
23768;SDS011;12064;50.890;5.424;2022-08-19T13:25:42;5.60;;;5.20;;
23768;SDS011;12064;50.890;5.424;2022-08-19T13:34:35;5.78;;;5.38;;
23768;SDS011;12064;50.890;5.424;2022-08-19T13:43:26;4.60;;;4.30;;
23768;SDS011;12064;50.890;5.424;2022-08-19T13:52:17;5.20;;;4.80;;
23768;SDS011;12064;50.890;5.424;2022-08-19T14:01:08;4.97;;;4.68;;
23768;SDS011;12064;50.890;5.424;2022-08-19T14:10:00;4.78;;;4.47;;
23768;SDS011;12064;50.890;5.424;2022-08-19T14:18:50;4.93;;;4.63;;
23768;SDS011;12064;50.890;5.424;2022-08-19T14:27:42;5.20;;;4.80;;
23768;SDS011;12064;50.890;5.424;2022-08-19T14:36:33;5.05;;;4.68;;
23768;SDS011;12064;50.890;5.424;2022-08-19T14:45:27;5.10;;;4.80;;
23768;SDS011;12064;50.890;5.424;2022-08-19T14:54:18;4.95;;;4.65;;
23768;SDS011;12064;50.890;5.424;2022-08-19T15:03:09;4.60;;;4.30;;
23768;SDS011;12064;50.890;5.424;2022-08-19T15:12:00;5.03;;;4.72;;
23768;SDS011;12064;50.890;5.424;2022-08-19T15:20:54;4.70;;;4.40;;
23768;SDS011;12064;50.890;5.424;2022-08-19T15:29:46;4.70;;;4.40;;
23768;SDS011;12064;50.890;5.424;2022-08-19T15:38:37;4.70;;;4.40;;
23768;SDS011;12064;50.890;5.424;2022-08-19T15:47:30;4.25;;;3.95;;
23768;SDS011;12064;50.890;5.424;2022-08-19T15:56:21;4.50;;;4.20;;
23768;SDS011;12064;50.890;5.424;2022-08-19T16:05:13;4.45;;;4.15;;
23768;SDS011;12064;50.890;5.424;2022-08-19T16:14:25;4.30;;;4.00;;
23768;SDS011;12064;50.890;5.424;2022-08-19T16:23:16;4.10;;;3.90;;
23768;SDS011;12064;50.890;5.424;2022-08-19T16:32:07;4.27;;;3.97;;
23768;SDS011;12064;50.890;5.424;2022-08-19T16:40:59;4.32;;;4.03;;
23768;SDS011;12064;50.890;5.424;2022-08-19T16:49:50;3.70;;;3.50;;
23768;SDS011;12064;50.890;5.424;2022-08-19T16:58:41;4.13;;;3.93;;
23768;SDS011;12064;50.890;5.424;2022-08-19T17:07:32;3.95;;;3.75;;
23768;SDS011;12064;50.890;5.424;2022-08-19T17:16:24;4.70;;;4.40;;
23768;SDS011;12064;50.890;5.424;2022-08-19T17:25:19;4.23;;;3.93;;
23768;SDS011;12064;50.890;5.424;2022-08-19T17:34:12;4.35;;;4.05;;
23768;SDS011;12064;50.890;5.424;2022-08-19T17:43:03;4.20;;;3.90;;
23768;SDS011;12064;50.890;5.424;2022-08-19T17:51:57;3.88;;;3.67;;
23768;SDS011;12064;50.890;5.424;2022-08-19T18:00:50;4.15;;;3.85;;
23768;SDS011;12064;50.890;5.424;2022-08-19T18:09:44;4.50;;;4.20;;
23768;SDS011;12064;50.890;5.424;2022-08-19T18:18:41;4.20;;;3.90;;
23768;SDS011;12064;50.890;5.424;2022-08-19T18:27:32;3.70;;;3.50;;
23768;SDS011;12064;50.890;5.424;2022-08-19T18:36:26;4.10;;;3.80;;
23768;SDS011;12064;50.890;5.424;2022-08-19T18:45:19;4.30;;;4.00;;
23768;SDS011;12064;50.890;5.424;2022-08-19T18:54:28;4.32;;;4.03;;
23768;SDS011;12064;50.890;5.424;2022-08-19T19:03:26;3.80;;;3.60;;
23768;SDS011;12064;50.890;5.424;2022-08-19T19:12:16;4.70;;;4.40;;
23768;SDS011;12064;50.890;5.424;2022-08-19T19:21:07;4.37;;;4.07;;
23768;SDS011;12064;50.890;5.424;2022-08-19T19:29:59;4.30;;;4.00;;
23768;SDS011;12064;50.890;5.424;2022-08-19T19:38:49;4.20;;;3.90;;
23768;SDS011;12064;50.890;5.424;2022-08-19T19:47:40;4.38;;;4.07;;
23768;SDS011;12064;50.890;5.424;2022-08-19T19:56:42;4.35;;;4.10;;
23768;SDS011;12064;50.890;5.424;2022-08-19T20:05:34;4.68;;;4.38;;
23768;SDS011;12064;50.890;5.424;2022-08-19T20:14:26;4.30;;;4.00;;
23768;SDS011;12064;50.890;5.424;2022-08-19T20:23:21;4.13;;;3.83;;
23768;SDS011;12064;50.890;5.424;2022-08-19T20:32:12;3.95;;;3.72;;
23768;SDS011;12064;50.890;5.424;2022-08-19T20:41:03;3.90;;;3.70;;
23768;SDS011;12064;50.890;5.424;2022-08-19T20:49:54;3.97;;;3.75;;
23768;SDS011;12064;50.890;5.424;2022-08-19T20:58:45;3.53;;;3.33;;
23768;SDS011;12064;50.890;5.424;2022-08-19T21:07:36;4.15;;;3.90;;
23768;SDS011;12064;50.890;5.424;2022-08-19T21:16:26;4.07;;;3.77;;
23768;SDS011;12064;50.890;5.424;2022-08-19T21:25:21;4.30;;;4.00;;
23768;SDS011;12064;50.890;5.424;2022-08-19T21:34:12;3.83;;;3.55;;
23768;SDS011;12064;50.890;5.424;2022-08-19T21:43:02;3.70;;;3.50;;
23768;SDS011;12064;50.890;5.424;2022-08-19T21:51:56;4.25;;;3.95;;
23768;SDS011;12064;50.890;5.424;2022-08-19T22:00:47;3.88;;;3.67;;
23768;SDS011;12064;50.890;5.424;2022-08-19T22:09:39;3.70;;;3.50;;
23768;SDS011;12064;50.890;5.424;2022-08-19T22:18:31;4.25;;;3.95;;
23768;SDS011;12064;50.890;5.424;2022-08-19T22:27:24;4.00;;;3.70;;
23768;SDS011;12064;50.890;5.424;2022-08-19T22:36:15;4.00;;;3.80;;
23768;SDS011;12064;50.890;5.424;2022-08-19T22:45:06;4.05;;;3.75;;
23768;SDS011;12064;50.890;5.424;2022-08-19T22:53:58;4.07;;;3.78;;
23768;SDS011;12064;50.890;5.424;2022-08-19T23:02:50;3.80;;;3.60;;
23768;SDS011;12064;50.890;5.424;2022-08-19T23:11:41;3.90;;;3.70;;
23768;SDS011;12064;50.890;5.424;2022-08-19T23:20:33;3.60;;;3.40;;
23768;SDS011;12064;50.890;5.424;2022-08-19T23:29:25;3.80;;;3.60;;
23768;SDS011;12064;50.890;5.424;2022-08-19T23:38:34;3.30;;;3.10;;
23768;SDS011;12064;50.890;5.424;2022-08-19T23:47:25;3.50;;;3.30;;
23768;SDS011;12064;50.890;5.424;2022-08-19T23:56:19;3.75;;;3.55;;
